sensor_id;sensor_type;location;lat;lon;timestamp;P1;durP1;ratioP1;P2;durP2;ratioP2
14789;SDS011;7486;51.010;10.366;2023-02-04T00:01:41;10.13;;;2.40;;
14789;SDS011;7486;51.010;10.366;2023-02-04T00:04:08;10.77;;;2.30;;
14789;SDS011;7486;51.010;10.366;2023-02-04T00:06:34;6.73;;;2.20;;
14789;SDS011;7486;51.010;10.366;2023-02-04T00:09:01;10.20;;;2.17;;
14789;SDS011;7486;51.010;10.366;2023-02-04T00:11:28;10.00;;;2.43;;
14789;SDS011;7486;51.010;10.366;2023-02-04T00:13:54;9.60;;;2.30;;
14789;SDS011;7486;51.010;10.366;2023-02-04T00:16:21;11.53;;;2.67;;
14789;SDS011;7486;51.010;10.366;2023-02-04T00:18:48;9.53;;;2.17;;
14789;SDS011;7486;51.010;10.366;2023-02-04T00:21:14;11.87;;;2.50;;
14789;SDS011;7486;51.010;10.366;2023-02-04T00:23:41;9.50;;;2.40;;
14789;SDS011;7486;51.010;10.366;2023-02-04T00:26:08;11.60;;;2.43;;
14789;SDS011;7486;51.010;10.366;2023-02-04T00:28:35;12.40;;;2.43;;
14789;SDS011;7486;51.010;10.366;2023-02-04T00:31:01;10.73;;;2.60;;
14789;SDS011;7486;51.010;10.366;2023-02-04T00:33:28;10.80;;;2.83;;
14789;SDS011;7486;51.010;10.366;2023-02-04T00:35:55;9.27;;;2.33;;
14789;SDS011;7486;51.010;10.366;2023-02-04T00:38:22;11.40;;;2.50;;
14789;SDS011;7486;51.010;10.366;2023-02-04T00:40:48;8.50;;;1.97;;
14789;SDS011;7486;51.010;10.366;2023-02-04T00:43:17;10.37;;;2.70;;
14789;SDS011;7486;51.010;10.366;2023-02-04T00:45:43;8.40;;;2.23;;
14789;SDS011;7486;51.010;10.366;2023-02-04T00:48:10;9.70;;;2.17;;
14789;SDS011;7486;51.010;10.366;2023-02-04T00:50:38;8.17;;;2.27;;
14789;SDS011;7486;51.010;10.366;2023-02-04T00:53:05;8.33;;;2.10;;
14789;SDS011;7486;51.010;10.366;2023-02-04T00:55:32;8.97;;;2.53;;
14789;SDS011;7486;51.010;10.366;2023-02-04T00:57:59;9.57;;;2.40;;
14789;SDS011;7486;51.010;10.366;2023-02-04T01:00:26;12.63;;;1.93;;
14789;SDS011;7486;51.010;10.366;2023-02-04T01:02:53;9.17;;;2.43;;
14789;SDS011;7486;51.010;10.366;2023-02-04T01:05:20;12.67;;;2.13;;
14789;SDS011;7486;51.010;10.366;2023-02-04T01:07:46;9.37;;;2.30;;
14789;SDS011;7486;51.010;10.366;2023-02-04T01:10:13;7.47;;;2.07;;
14789;SDS011;7486;51.010;10.366;2023-02-04T01:12:40;8.60;;;2.43;;
14789;SDS011;7486;51.010;10.366;2023-02-04T01:15:07;11.10;;;2.20;;
14789;SDS011;7486;51.010;10.366;2023-02-04T01:17:34;10.03;;;2.33;;
14789;SDS011;7486;51.010;10.366;2023-02-04T01:20:01;10.03;;;2.10;;
14789;SDS011;7486;51.010;10.366;2023-02-04T01:22:28;8.00;;;2.00;;
14789;SDS011;7486;51.010;10.366;2023-02-04T01:24:55;10.17;;;2.33;;
14789;SDS011;7486;51.010;10.366;2023-02-04T01:27:40;10.27;;;2.00;;
14789;SDS011;7486;51.010;10.366;2023-02-04T01:30:07;8.77;;;2.00;;
14789;SDS011;7486;51.010;10.366;2023-02-04T01:32:34;9.00;;;2.37;;
14789;SDS011;7486;51.010;10.366;2023-02-04T01:35:01;8.50;;;2.10;;
14789;SDS011;7486;51.010;10.366;2023-02-04T01:37:28;12.83;;;2.27;;
14789;SDS011;7486;51.010;10.366;2023-02-04T01:39:55;11.40;;;2.40;;
14789;SDS011;7486;51.010;10.366;2023-02-04T01:42:21;9.87;;;2.57;;
14789;SDS011;7486;51.010;10.366;2023-02-04T01:44:48;9.93;;;2.50;;
14789;SDS011;7486;51.010;10.366;2023-02-04T01:47:16;6.50;;;1.77;;
14789;SDS011;7486;51.010;10.366;2023-02-04T01:49:43;10.60;;;2.50;;
14789;SDS011;7486;51.010;10.366;2023-02-04T01:52:14;8.93;;;2.10;;
14789;SDS011;7486;51.010;10.366;2023-02-04T01:54:42;11.63;;;2.60;;
14789;SDS011;7486;51.010;10.366;2023-02-04T01:57:12;8.90;;;2.00;;
14789;SDS011;7486;51.010;10.366;2023-02-04T01:59:44;8.13;;;2.27;;
14789;SDS011;7486;51.010;10.366;2023-02-04T02:05:10;10.87;;;2.07;;
14789;SDS011;7486;51.010;10.366;2023-02-04T02:07:40;9.80;;;2.13;;
14789;SDS011;7486;51.010;10.366;2023-02-04T02:10:08;9.77;;;2.57;;
14789;SDS011;7486;51.010;10.366;2023-02-04T02:12:37;9.97;;;2.20;;
14789;SDS011;7486;51.010;10.366;2023-02-04T02:15:04;6.47;;;2.07;;
14789;SDS011;7486;51.010;10.366;2023-02-04T02:17:31;11.40;;;2.13;;
14789;SDS011;7486;51.010;10.366;2023-02-04T02:19:58;9.13;;;2.10;;
14789;SDS011;7486;51.010;10.366;2023-02-04T02:22:28;9.50;;;2.20;;
14789;SDS011;7486;51.010;10.366;2023-02-04T02:24:57;9.70;;;2.40;;
14789;SDS011;7486;51.010;10.366;2023-02-04T02:27:24;12.13;;;2.57;;
14789;SDS011;7486;51.010;10.366;2023-02-04T02:29:51;9.63;;;2.27;;
14789;SDS011;7486;51.010;10.366;2023-02-04T02:32:17;7.67;;;2.00;;
14789;SDS011;7486;51.010;10.366;2023-02-04T02:34:46;9.97;;;1.97;;
14789;SDS011;7486;51.010;10.366;2023-02-04T02:37:12;9.23;;;2.00;;
14789;SDS011;7486;51.010;10.366;2023-02-04T02:39:39;6.67;;;1.90;;
14789;SDS011;7486;51.010;10.366;2023-02-04T02:42:12;12.13;;;2.37;;
14789;SDS011;7486;51.010;10.366;2023-02-04T02:44:42;10.57;;;2.30;;
14789;SDS011;7486;51.010;10.366;2023-02-04T02:47:11;9.33;;;2.00;;
14789;SDS011;7486;51.010;10.366;2023-02-04T02:49:42;11.73;;;2.07;;
14789;SDS011;7486;51.010;10.366;2023-02-04T02:52:10;9.67;;;2.50;;
14789;SDS011;7486;51.010;10.366;2023-02-04T02:54:39;13.03;;;2.43;;
14789;SDS011;7486;51.010;10.366;2023-02-04T02:57:15;12.70;;;2.40;;
14789;SDS011;7486;51.010;10.366;2023-02-04T02:59:44;10.67;;;2.30;;
14789;SDS011;7486;51.010;10.366;2023-02-04T03:02:12;7.77;;;2.43;;
14789;SDS011;7486;51.010;10.366;2023-02-04T03:04:46;14.73;;;2.90;;
14789;SDS011;7486;51.010;10.366;2023-02-04T03:07:19;9.10;;;2.23;;
14789;SDS011;7486;51.010;10.366;2023-02-04T03:09:47;10.90;;;2.13;;
14789;SDS011;7486;51.010;10.366;2023-02-04T03:12:14;10.00;;;2.40;;
14789;SDS011;7486;51.010;10.366;2023-02-04T03:14:41;13.07;;;2.43;;
14789;SDS011;7486;51.010;10.366;2023-02-04T03:17:08;9.83;;;2.07;;
14789;SDS011;7486;51.010;10.366;2023-02-04T03:19:36;8.20;;;2.50;;
14789;SDS011;7486;51.010;10.366;2023-02-04T03:22:04;15.30;;;2.50;;
14789;SDS011;7486;51.010;10.366;2023-02-04T03:24:31;12.07;;;2.47;;
14789;SDS011;7486;51.010;10.366;2023-02-04T03:26:59;10.03;;;2.07;;
14789;SDS011;7486;51.010;10.366;2023-02-04T03:29:26;11.37;;;2.57;;
14789;SDS011;7486;51.010;10.366;2023-02-04T03:31:55;12.13;;;2.40;;
14789;SDS011;7486;51.010;10.366;2023-02-04T03:34:22;8.40;;;2.03;;
14789;SDS011;7486;51.010;10.366;2023-02-04T03:36:49;9.33;;;2.70;;
14789;SDS011;7486;51.010;10.366;2023-02-04T03:39:15;12.83;;;2.10;;
14789;SDS011;7486;51.010;10.366;2023-02-04T03:41:42;15.70;;;2.47;;
14789;SDS011;7486;51.010;10.366;2023-02-04T03:44:09;7.07;;;2.20;;
14789;SDS011;7486;51.010;10.366;2023-02-04T03:46:35;9.07;;;2.07;;
14789;SDS011;7486;51.010;10.366;2023-02-04T03:49:02;11.53;;;2.03;;
14789;SDS011;7486;51.010;10.366;2023-02-04T03:51:29;12.20;;;2.50;;
14789;SDS011;7486;51.010;10.366;2023-02-04T03:53:56;8.27;;;2.07;;
14789;SDS011;7486;51.010;10.366;2023-02-04T03:56:22;13.93;;;2.77;;
14789;SDS011;7486;51.010;10.366;2023-02-04T03:58:49;9.67;;;2.10;;
14789;SDS011;7486;51.010;10.366;2023-02-04T04:01:16;7.83;;;1.80;;
14789;SDS011;7486;51.010;10.366;2023-02-04T04:03:42;10.00;;;2.00;;
14789;SDS011;7486;51.010;10.366;2023-02-04T04:06:09;3.43;;;1.20;;
14789;SDS011;7486;51.010;10.366;2023-02-04T04:08:36;1.73;;;1.00;;
14789;SDS011;7486;51.010;10.366;2023-02-04T04:11:04;1.23;;;0.60;;
14789;SDS011;7486;51.010;10.366;2023-02-04T04:13:31;1.27;;;0.50;;
14789;SDS011;7486;51.010;10.366;2023-02-04T04:15:57;0.53;;;0.40;;
14789;SDS011;7486;51.010;10.366;2023-02-04T04:18:24;0.30;;;0.30;;
14789;SDS011;7486;51.010;10.366;2023-02-04T04:20:51;0.40;;;0.30;;
14789;SDS011;7486;51.010;10.366;2023-02-04T04:23:17;0.93;;;0.60;;
14789;SDS011;7486;51.010;10.366;2023-02-04T04:25:44;0.40;;;0.40;;
14789;SDS011;7486;51.010;10.366;2023-02-04T04:28:11;0.77;;;0.77;;
14789;SDS011;7486;51.010;10.366;2023-02-04T04:30:38;0.87;;;0.50;;
14789;SDS011;7486;51.010;10.366;2023-02-04T04:33:04;0.60;;;0.60;;
14789;SDS011;7486;51.010;10.366;2023-02-04T04:35:31;1.03;;;0.80;;
14789;SDS011;7486;51.010;10.366;2023-02-04T04:37:58;3.90;;;2.67;;
14789;SDS011;7486;51.010;10.366;2023-02-04T04:40:25;3.83;;;2.90;;
14789;SDS011;7486;51.010;10.366;2023-02-04T04:42:51;3.43;;;2.10;;
14789;SDS011;7486;51.010;10.366;2023-02-04T04:45:19;1.23;;;1.13;;
14789;SDS011;7486;51.010;10.366;2023-02-04T04:47:46;0.80;;;0.70;;
14789;SDS011;7486;51.010;10.366;2023-02-04T04:50:13;0.50;;;0.50;;
14789;SDS011;7486;51.010;10.366;2023-02-04T04:52:40;1.63;;;0.60;;
14789;SDS011;7486;51.010;10.366;2023-02-04T04:55:06;0.50;;;0.50;;
14789;SDS011;7486;51.010;10.366;2023-02-04T04:57:33;0.70;;;0.70;;
14789;SDS011;7486;51.010;10.366;2023-02-04T05:00:00;0.70;;;0.70;;
14789;SDS011;7486;51.010;10.366;2023-02-04T05:02:27;1.77;;;0.83;;
14789;SDS011;7486;51.010;10.366;2023-02-04T05:04:54;0.70;;;0.70;;
14789;SDS011;7486;51.010;10.366;2023-02-04T05:07:21;1.40;;;0.60;;
14789;SDS011;7486;51.010;10.366;2023-02-04T05:09:47;1.60;;;0.77;;
14789;SDS011;7486;51.010;10.366;2023-02-04T05:12:14;0.70;;;0.70;;
14789;SDS011;7486;51.010;10.366;2023-02-04T05:14:41;1.27;;;0.60;;
14789;SDS011;7486;51.010;10.366;2023-02-04T05:17:07;0.70;;;0.63;;
14789;SDS011;7486;51.010;10.366;2023-02-04T05:19:34;1.40;;;0.70;;
14789;SDS011;7486;51.010;10.366;2023-02-04T05:22:01;0.80;;;0.60;;
14789;SDS011;7486;51.010;10.366;2023-02-04T05:24:27;1.60;;;0.70;;
14789;SDS011;7486;51.010;10.366;2023-02-04T05:26:54;0.70;;;0.70;;
14789;SDS011;7486;51.010;10.366;2023-02-04T05:29:21;0.60;;;0.60;;
14789;SDS011;7486;51.010;10.366;2023-02-04T05:31:47;2.93;;;1.10;;
14789;SDS011;7486;51.010;10.366;2023-02-04T05:34:14;1.50;;;0.80;;
14789;SDS011;7486;51.010;10.366;2023-02-04T05:36:41;1.00;;;1.00;;
14789;SDS011;7486;51.010;10.366;2023-02-04T05:39:07;1.37;;;0.80;;
14789;SDS011;7486;51.010;10.366;2023-02-04T05:41:34;1.37;;;1.20;;
14789;SDS011;7486;51.010;10.366;2023-02-04T05:44:01;1.17;;;1.07;;
14789;SDS011;7486;51.010;10.366;2023-02-04T05:46:28;1.30;;;1.20;;
14789;SDS011;7486;51.010;10.366;2023-02-04T05:48:55;2.13;;;1.20;;
14789;SDS011;7486;51.010;10.366;2023-02-04T05:51:21;1.90;;;1.40;;
14789;SDS011;7486;51.010;10.366;2023-02-04T05:53:48;1.47;;;1.37;;
14789;SDS011;7486;51.010;10.366;2023-02-04T05:56:15;1.30;;;1.20;;
14789;SDS011;7486;51.010;10.366;2023-02-04T05:58:41;2.27;;;1.60;;
14789;SDS011;7486;51.010;10.366;2023-02-04T06:01:08;1.73;;;1.63;;
14789;SDS011;7486;51.010;10.366;2023-02-04T06:03:35;1.60;;;1.50;;
14789;SDS011;7486;51.010;10.366;2023-02-04T06:06:02;1.63;;;1.40;;
14789;SDS011;7486;51.010;10.366;2023-02-04T06:08:28;2.03;;;1.60;;
14789;SDS011;7486;51.010;10.366;2023-02-04T06:10:55;1.43;;;1.33;;
14789;SDS011;7486;51.010;10.366;2023-02-04T06:13:22;1.63;;;1.47;;
14789;SDS011;7486;51.010;10.366;2023-02-04T06:15:48;1.47;;;1.37;;
14789;SDS011;7486;51.010;10.366;2023-02-04T06:18:15;2.30;;;1.40;;
14789;SDS011;7486;51.010;10.366;2023-02-04T06:20:42;2.47;;;1.40;;
14789;SDS011;7486;51.010;10.366;2023-02-04T06:23:08;1.57;;;1.40;;
14789;SDS011;7486;51.010;10.366;2023-02-04T06:25:35;1.90;;;1.30;;
14789;SDS011;7486;51.010;10.366;2023-02-04T06:28:02;1.70;;;1.37;;
14789;SDS011;7486;51.010;10.366;2023-02-04T06:30:29;1.33;;;1.23;;
14789;SDS011;7486;51.010;10.366;2023-02-04T06:32:57;2.00;;;1.40;;
14789;SDS011;7486;51.010;10.366;2023-02-04T06:35:23;1.63;;;1.27;;
14789;SDS011;7486;51.010;10.366;2023-02-04T06:37:50;1.80;;;1.50;;
14789;SDS011;7486;51.010;10.366;2023-02-04T06:40:17;1.50;;;1.40;;
14789;SDS011;7486;51.010;10.366;2023-02-04T06:42:43;1.67;;;1.40;;
14789;SDS011;7486;51.010;10.366;2023-02-04T06:45:10;1.57;;;1.47;;
14789;SDS011;7486;51.010;10.366;2023-02-04T06:47:37;1.40;;;1.10;;
14789;SDS011;7486;51.010;10.366;2023-02-04T06:50:03;1.33;;;1.23;;
14789;SDS011;7486;51.010;10.366;2023-02-04T06:52:30;1.43;;;1.30;;
14789;SDS011;7486;51.010;10.366;2023-02-04T06:54:57;2.00;;;1.50;;
14789;SDS011;7486;51.010;10.366;2023-02-04T06:57:24;2.83;;;1.90;;
14789;SDS011;7486;51.010;10.366;2023-02-04T06:59:50;2.17;;;1.97;;
14789;SDS011;7486;51.010;10.366;2023-02-04T07:02:17;2.17;;;1.60;;
14789;SDS011;7486;51.010;10.366;2023-02-04T07:04:44;2.37;;;2.10;;
14789;SDS011;7486;51.010;10.366;2023-02-04T07:07:13;2.17;;;1.73;;
14789;SDS011;7486;51.010;10.366;2023-02-04T07:09:39;2.47;;;2.27;;
14789;SDS011;7486;51.010;10.366;2023-02-04T07:12:06;3.73;;;3.20;;
14789;SDS011;7486;51.010;10.366;2023-02-04T07:14:33;2.60;;;2.30;;
14789;SDS011;7486;51.010;10.366;2023-02-04T07:17:00;1.47;;;1.37;;
14789;SDS011;7486;51.010;10.366;2023-02-04T07:19:27;1.40;;;1.30;;
14789;SDS011;7486;51.010;10.366;2023-02-04T07:21:53;3.07;;;1.40;;
14789;SDS011;7486;51.010;10.366;2023-02-04T07:24:20;1.33;;;1.23;;
14789;SDS011;7486;51.010;10.366;2023-02-04T07:26:48;1.80;;;1.50;;
14789;SDS011;7486;51.010;10.366;2023-02-04T07:29:15;1.83;;;1.40;;
14789;SDS011;7486;51.010;10.366;2023-02-04T07:31:50;1.90;;;1.30;;
14789;SDS011;7486;51.010;10.366;2023-02-04T07:34:17;1.40;;;1.30;;
14789;SDS011;7486;51.010;10.366;2023-02-04T07:36:44;2.13;;;1.50;;
14789;SDS011;7486;51.010;10.366;2023-02-04T07:39:11;1.63;;;1.40;;
14789;SDS011;7486;51.010;10.366;2023-02-04T07:41:37;1.87;;;1.20;;
14789;SDS011;7486;51.010;10.366;2023-02-04T07:44:04;1.63;;;1.40;;
14789;SDS011;7486;51.010;10.366;2023-02-04T07:46:31;1.30;;;1.20;;
14789;SDS011;7486;51.010;10.366;2023-02-04T07:48:57;2.00;;;1.57;;
14789;SDS011;7486;51.010;10.366;2023-02-04T07:51:24;1.80;;;1.53;;
14789;SDS011;7486;51.010;10.366;2023-02-04T07:53:53;1.67;;;1.50;;
14789;SDS011;7486;51.010;10.366;2023-02-04T07:56:21;1.53;;;1.43;;
14789;SDS011;7486;51.010;10.366;2023-02-04T07:58:48;2.43;;;1.60;;
14789;SDS011;7486;51.010;10.366;2023-02-04T08:01:15;2.20;;;1.30;;
14789;SDS011;7486;51.010;10.366;2023-02-04T08:03:42;1.20;;;1.10;;
14789;SDS011;7486;51.010;10.366;2023-02-04T08:06:10;2.00;;;1.80;;
14789;SDS011;7486;51.010;10.366;2023-02-04T08:08:36;1.50;;;1.40;;
14789;SDS011;7486;51.010;10.366;2023-02-04T08:11:03;1.93;;;1.50;;
14789;SDS011;7486;51.010;10.366;2023-02-04T08:13:33;2.70;;;1.40;;
14789;SDS011;7486;51.010;10.366;2023-02-04T08:16:01;1.50;;;1.30;;
14789;SDS011;7486;51.010;10.366;2023-02-04T08:18:28;1.63;;;1.50;;
14789;SDS011;7486;51.010;10.366;2023-02-04T08:20:55;3.60;;;1.60;;
14789;SDS011;7486;51.010;10.366;2023-02-04T08:23:22;1.40;;;1.30;;
14789;SDS011;7486;51.010;10.366;2023-02-04T08:25:49;2.47;;;1.80;;
14789;SDS011;7486;51.010;10.366;2023-02-04T08:28:19;1.83;;;1.50;;
14789;SDS011;7486;51.010;10.366;2023-02-04T08:30:48;1.30;;;1.20;;
14789;SDS011;7486;51.010;10.366;2023-02-04T08:33:15;2.13;;;1.10;;
14789;SDS011;7486;51.010;10.366;2023-02-04T08:35:41;1.53;;;1.43;;
14789;SDS011;7486;51.010;10.366;2023-02-04T08:38:08;1.40;;;1.30;;
14789;SDS011;7486;51.010;10.366;2023-02-04T08:40:35;1.47;;;1.20;;
14789;SDS011;7486;51.010;10.366;2023-02-04T08:43:04;2.13;;;1.40;;
14789;SDS011;7486;51.010;10.366;2023-02-04T08:45:31;1.40;;;1.30;;
14789;SDS011;7486;51.010;10.366;2023-02-04T08:47:57;1.53;;;1.27;;
14789;SDS011;7486;51.010;10.366;2023-02-04T08:50:28;1.27;;;1.17;;
14789;SDS011;7486;51.010;10.366;2023-02-04T08:53:07;1.60;;;1.10;;
14789;SDS011;7486;51.010;10.366;2023-02-04T08:55:33;1.40;;;1.27;;
14789;SDS011;7486;51.010;10.366;2023-02-04T08:58:00;1.00;;;1.00;;
14789;SDS011;7486;51.010;10.366;2023-02-04T09:00:27;1.97;;;1.10;;
14789;SDS011;7486;51.010;10.366;2023-02-04T09:02:54;2.37;;;1.30;;
14789;SDS011;7486;51.010;10.366;2023-02-04T09:05:20;1.30;;;1.20;;
14789;SDS011;7486;51.010;10.366;2023-02-04T09:07:47;1.67;;;1.43;;
14789;SDS011;7486;51.010;10.366;2023-02-04T09:10:14;1.30;;;1.10;;
14789;SDS011;7486;51.010;10.366;2023-02-04T09:12:41;1.30;;;1.10;;
14789;SDS011;7486;51.010;10.366;2023-02-04T09:15:08;1.40;;;1.10;;
14789;SDS011;7486;51.010;10.366;2023-02-04T09:17:36;2.90;;;1.40;;
14789;SDS011;7486;51.010;10.366;2023-02-04T09:20:04;1.73;;;1.23;;
14789;SDS011;7486;51.010;10.366;2023-02-04T09:22:33;1.53;;;1.37;;
14789;SDS011;7486;51.010;10.366;2023-02-04T09:25:00;1.40;;;1.30;;
14789;SDS011;7486;51.010;10.366;2023-02-04T09:27:27;1.63;;;1.07;;
14789;SDS011;7486;51.010;10.366;2023-02-04T09:29:54;1.33;;;1.17;;
14789;SDS011;7486;51.010;10.366;2023-02-04T09:32:21;1.10;;;0.90;;
14789;SDS011;7486;51.010;10.366;2023-02-04T09:34:47;1.00;;;1.00;;
14789;SDS011;7486;51.010;10.366;2023-02-04T09:37:14;1.20;;;1.10;;
14789;SDS011;7486;51.010;10.366;2023-02-04T09:39:41;1.30;;;1.20;;
14789;SDS011;7486;51.010;10.366;2023-02-04T09:42:08;1.13;;;1.07;;
14789;SDS011;7486;51.010;10.366;2023-02-04T09:44:39;2.23;;;1.20;;
14789;SDS011;7486;51.010;10.366;2023-02-04T09:47:08;1.07;;;0.93;;
14789;SDS011;7486;51.010;10.366;2023-02-04T09:49:37;1.03;;;1.03;;
14789;SDS011;7486;51.010;10.366;2023-02-04T09:52:05;0.90;;;0.90;;
14789;SDS011;7486;51.010;10.366;2023-02-04T09:54:37;0.80;;;0.80;;
14789;SDS011;7486;51.010;10.366;2023-02-04T09:57:17;0.70;;;0.70;;
14789;SDS011;7486;51.010;10.366;2023-02-04T09:59:45;1.37;;;1.00;;
14789;SDS011;7486;51.010;10.366;2023-02-04T10:02:33;1.10;;;0.90;;
14789;SDS011;7486;51.010;10.366;2023-02-04T10:05:00;1.13;;;1.03;;
14789;SDS011;7486;51.010;10.366;2023-02-04T10:07:27;1.00;;;0.90;;
14789;SDS011;7486;51.010;10.366;2023-02-04T10:09:54;1.10;;;0.80;;
14789;SDS011;7486;51.010;10.366;2023-02-04T10:12:21;2.10;;;1.10;;
14789;SDS011;7486;51.010;10.366;2023-02-04T10:14:48;0.90;;;0.90;;
14789;SDS011;7486;51.010;10.366;2023-02-04T10:17:17;1.57;;;0.90;;
14789;SDS011;7486;51.010;10.366;2023-02-04T10:19:47;0.90;;;0.90;;
14789;SDS011;7486;51.010;10.366;2023-02-04T10:22:18;1.13;;;0.90;;
14789;SDS011;7486;51.010;10.366;2023-02-04T10:24:46;1.17;;;1.07;;
14789;SDS011;7486;51.010;10.366;2023-02-04T10:27:13;1.70;;;1.20;;
14789;SDS011;7486;51.010;10.366;2023-02-04T10:29:40;2.03;;;1.20;;
14789;SDS011;7486;51.010;10.366;2023-02-04T10:32:26;1.70;;;1.20;;
14789;SDS011;7486;51.010;10.366;2023-02-04T10:34:59;1.10;;;1.00;;
14789;SDS011;7486;51.010;10.366;2023-02-04T10:37:27;1.10;;;1.00;;
14789;SDS011;7486;51.010;10.366;2023-02-04T10:39:54;1.40;;;1.30;;
14789;SDS011;7486;51.010;10.366;2023-02-04T10:42:22;2.43;;;1.47;;
14789;SDS011;7486;51.010;10.366;2023-02-04T10:44:53;2.13;;;1.37;;
14789;SDS011;7486;51.010;10.366;2023-02-04T10:47:21;3.10;;;1.20;;
14789;SDS011;7486;51.010;10.366;2023-02-04T10:49:50;1.50;;;1.30;;
14789;SDS011;7486;51.010;10.366;2023-02-04T10:52:21;1.40;;;1.30;;
14789;SDS011;7486;51.010;10.366;2023-02-04T10:54:52;1.80;;;1.30;;
14789;SDS011;7486;51.010;10.366;2023-02-04T10:57:20;1.67;;;1.27;;
14789;SDS011;7486;51.010;10.366;2023-02-04T10:59:54;1.77;;;1.30;;
14789;SDS011;7486;51.010;10.366;2023-02-04T11:04:53;1.30;;;1.20;;
14789;SDS011;7486;51.010;10.366;2023-02-04T11:07:20;1.57;;;1.20;;
14789;SDS011;7486;51.010;10.366;2023-02-04T11:09:48;1.50;;;1.37;;
14789;SDS011;7486;51.010;10.366;2023-02-04T11:15:03;1.67;;;1.43;;
14789;SDS011;7486;51.010;10.366;2023-02-04T11:18:03;1.80;;;1.70;;
14789;SDS011;7486;51.010;10.366;2023-02-04T11:20:32;1.43;;;1.20;;
14789;SDS011;7486;51.010;10.366;2023-02-04T11:23:12;1.20;;;1.03;;
14789;SDS011;7486;51.010;10.366;2023-02-04T11:28:50;0.90;;;0.90;;
14789;SDS011;7486;51.010;10.366;2023-02-04T11:33:48;1.83;;;1.10;;
14789;SDS011;7486;51.010;10.366;2023-02-04T11:36:16;1.20;;;1.10;;
14789;SDS011;7486;51.010;10.366;2023-02-04T11:38:46;1.50;;;1.23;;
14789;SDS011;7486;51.010;10.366;2023-02-04T11:41:15;1.00;;;1.00;;
14789;SDS011;7486;51.010;10.366;2023-02-04T11:43:50;1.03;;;1.00;;
14789;SDS011;7486;51.010;10.366;2023-02-04T11:46:18;1.80;;;1.20;;
14789;SDS011;7486;51.010;10.366;2023-02-04T11:48:46;1.10;;;1.00;;
14789;SDS011;7486;51.010;10.366;2023-02-04T11:51:32;1.30;;;1.20;;
14789;SDS011;7486;51.010;10.366;2023-02-04T11:53:59;2.50;;;1.07;;
14789;SDS011;7486;51.010;10.366;2023-02-04T11:56:27;1.90;;;1.53;;
14789;SDS011;7486;51.010;10.366;2023-02-04T11:58:55;2.40;;;1.50;;
14789;SDS011;7486;51.010;10.366;2023-02-04T12:01:24;1.40;;;1.30;;
14789;SDS011;7486;51.010;10.366;2023-02-04T12:12:44;2.00;;;1.30;;
14789;SDS011;7486;51.010;10.366;2023-02-04T12:15:16;1.50;;;1.40;;
14789;SDS011;7486;51.010;10.366;2023-02-04T12:18:01;1.70;;;1.43;;
14789;SDS011;7486;51.010;10.366;2023-02-04T12:20:32;2.10;;;1.50;;
14789;SDS011;7486;51.010;10.366;2023-02-04T12:23:00;2.27;;;1.70;;
14789;SDS011;7486;51.010;10.366;2023-02-04T12:25:27;2.10;;;1.37;;
14789;SDS011;7486;51.010;10.366;2023-02-04T12:27:53;1.90;;;1.47;;
14789;SDS011;7486;51.010;10.366;2023-02-04T12:30:22;2.20;;;1.40;;
14789;SDS011;7486;51.010;10.366;2023-02-04T12:32:49;1.57;;;1.47;;
14789;SDS011;7486;51.010;10.366;2023-02-04T12:35:16;1.80;;;1.40;;
14789;SDS011;7486;51.010;10.366;2023-02-04T12:37:44;1.90;;;1.60;;
14789;SDS011;7486;51.010;10.366;2023-02-04T12:40:15;2.40;;;1.60;;
14789;SDS011;7486;51.010;10.366;2023-02-04T12:42:43;2.43;;;1.57;;
14789;SDS011;7486;51.010;10.366;2023-02-04T12:45:11;1.90;;;1.50;;
14789;SDS011;7486;51.010;10.366;2023-02-04T12:47:40;2.50;;;1.43;;
14789;SDS011;7486;51.010;10.366;2023-02-04T12:50:08;1.50;;;1.40;;
14789;SDS011;7486;51.010;10.366;2023-02-04T12:52:40;3.63;;;1.40;;
14789;SDS011;7486;51.010;10.366;2023-02-04T12:55:07;1.83;;;1.60;;
14789;SDS011;7486;51.010;10.366;2023-02-04T12:57:34;1.50;;;1.33;;
14789;SDS011;7486;51.010;10.366;2023-02-04T13:00:02;1.80;;;1.50;;
14789;SDS011;7486;51.010;10.366;2023-02-04T13:02:29;1.30;;;1.20;;
14789;SDS011;7486;51.010;10.366;2023-02-04T13:04:56;2.87;;;1.37;;
14789;SDS011;7486;51.010;10.366;2023-02-04T13:07:23;1.97;;;1.30;;
14789;SDS011;7486;51.010;10.366;2023-02-04T13:09:50;1.40;;;1.30;;
14789;SDS011;7486;51.010;10.366;2023-02-04T13:12:17;1.30;;;1.10;;
14789;SDS011;7486;51.010;10.366;2023-02-04T13:14:43;2.20;;;1.50;;
14789;SDS011;7486;51.010;10.366;2023-02-04T13:17:10;1.90;;;1.40;;
14789;SDS011;7486;51.010;10.366;2023-02-04T13:19:37;1.70;;;1.30;;
14789;SDS011;7486;51.010;10.366;2023-02-04T13:22:04;1.40;;;1.30;;
14789;SDS011;7486;51.010;10.366;2023-02-04T13:24:34;1.87;;;1.40;;
14789;SDS011;7486;51.010;10.366;2023-02-04T13:27:01;1.50;;;1.40;;
14789;SDS011;7486;51.010;10.366;2023-02-04T13:29:27;2.20;;;1.30;;
14789;SDS011;7486;51.010;10.366;2023-02-04T13:31:54;1.20;;;1.10;;
14789;SDS011;7486;51.010;10.366;2023-02-04T13:34:21;1.93;;;1.37;;
14789;SDS011;7486;51.010;10.366;2023-02-04T13:36:48;1.43;;;1.30;;
14789;SDS011;7486;51.010;10.366;2023-02-04T13:39:14;1.77;;;1.30;;
14789;SDS011;7486;51.010;10.366;2023-02-04T13:41:41;1.27;;;1.17;;
14789;SDS011;7486;51.010;10.366;2023-02-04T13:44:07;1.20;;;1.10;;
14789;SDS011;7486;51.010;10.366;2023-02-04T13:46:34;1.83;;;1.30;;
14789;SDS011;7486;51.010;10.366;2023-02-04T13:49:01;1.43;;;1.33;;
14789;SDS011;7486;51.010;10.366;2023-02-04T13:51:28;1.47;;;1.30;;
14789;SDS011;7486;51.010;10.366;2023-02-04T13:53:55;1.93;;;0.97;;
14789;SDS011;7486;51.010;10.366;2023-02-04T13:56:22;3.00;;;1.17;;
14789;SDS011;7486;51.010;10.366;2023-02-04T13:58:48;1.20;;;1.10;;
14789;SDS011;7486;51.010;10.366;2023-02-04T14:01:15;1.20;;;1.10;;
14789;SDS011;7486;51.010;10.366;2023-02-04T14:03:42;1.80;;;1.00;;
14789;SDS011;7486;51.010;10.366;2023-02-04T14:06:08;1.50;;;1.23;;
14789;SDS011;7486;51.010;10.366;2023-02-04T14:08:35;1.80;;;1.17;;
14789;SDS011;7486;51.010;10.366;2023-02-04T14:11:02;1.63;;;1.30;;
14789;SDS011;7486;51.010;10.366;2023-02-04T14:13:29;2.00;;;1.30;;
14789;SDS011;7486;51.010;10.366;2023-02-04T14:15:56;1.20;;;1.00;;
14789;SDS011;7486;51.010;10.366;2023-02-04T14:18:23;1.50;;;1.20;;
14789;SDS011;7486;51.010;10.366;2023-02-04T14:20:50;1.20;;;1.10;;
14789;SDS011;7486;51.010;10.366;2023-02-04T14:23:16;1.30;;;1.10;;
14789;SDS011;7486;51.010;10.366;2023-02-04T14:25:43;2.97;;;1.10;;
14789;SDS011;7486;51.010;10.366;2023-02-04T14:28:10;2.00;;;1.00;;
14789;SDS011;7486;51.010;10.366;2023-02-04T14:30:37;1.27;;;1.10;;
14789;SDS011;7486;51.010;10.366;2023-02-04T14:33:03;0.90;;;0.90;;
14789;SDS011;7486;51.010;10.366;2023-02-04T14:35:30;1.80;;;1.13;;
14789;SDS011;7486;51.010;10.366;2023-02-04T14:37:57;1.53;;;0.90;;
14789;SDS011;7486;51.010;10.366;2023-02-04T14:40:23;1.03;;;1.00;;
14789;SDS011;7486;51.010;10.366;2023-02-04T14:42:50;1.10;;;1.00;;
14789;SDS011;7486;51.010;10.366;2023-02-04T14:45:17;1.03;;;1.00;;
14789;SDS011;7486;51.010;10.366;2023-02-04T14:47:44;1.13;;;1.00;;
14789;SDS011;7486;51.010;10.366;2023-02-04T14:50:14;1.80;;;0.93;;
14789;SDS011;7486;51.010;10.366;2023-02-04T14:52:42;0.80;;;0.80;;
14789;SDS011;7486;51.010;10.366;2023-02-04T14:55:09;1.20;;;0.73;;
14789;SDS011;7486;51.010;10.366;2023-02-04T14:57:36;0.90;;;0.90;;
14789;SDS011;7486;51.010;10.366;2023-02-04T15:00:04;0.90;;;0.80;;
14789;SDS011;7486;51.010;10.366;2023-02-04T15:02:32;0.97;;;0.90;;
14789;SDS011;7486;51.010;10.366;2023-02-04T15:04:59;0.70;;;0.70;;
14789;SDS011;7486;51.010;10.366;2023-02-04T15:07:25;1.17;;;1.00;;
14789;SDS011;7486;51.010;10.366;2023-02-04T15:09:52;1.20;;;0.90;;
14789;SDS011;7486;51.010;10.366;2023-02-04T15:12:19;1.03;;;0.80;;